createdAt,value
2017-08-12T00:00:55.099Z,1006.04
2017-08-12T00:01:55.123Z,1006.02
2017-08-12T00:02:55.146Z,1006.13
2017-08-12T00:03:55.172Z,1006.17
2017-08-12T00:04:55.249Z,1006.17
2017-08-12T00:05:55.218Z,1006.22
2017-08-12T00:06:55.240Z,1006.27
2017-08-12T00:07:55.269Z,1006.26
2017-08-12T00:09:55.317Z,1006.26
2017-08-12T00:10:55.342Z,1006.32
2017-08-12T00:11:55.363Z,1006.27
2017-08-12T00:12:55.390Z,1006.4
2017-08-12T00:13:55.412Z,1006.37
2017-08-12T00:14:55.437Z,1006.42
2017-08-12T00:15:55.459Z,1006.48
2017-08-12T00:16:55.487Z,1006.5
2017-08-12T00:17:55.512Z,1006.54
2017-08-12T00:18:55.531Z,1006.55
2017-08-12T00:19:55.556Z,1006.6
2017-08-12T00:20:55.583Z,1006.64
2017-08-12T00:21:55.607Z,1006.62
2017-08-12T00:22:55.634Z,1006.69
2017-08-12T00:23:55.657Z,1006.69
2017-08-12T00:25:55.701Z,1006.73
2017-08-12T00:26:55.728Z,1006.71
2017-08-12T00:27:55.750Z,1006.69
2017-08-12T00:28:55.771Z,1006.74
2017-08-12T00:29:55.797Z,1006.72
2017-08-12T00:30:55.823Z,1006.75
2017-08-12T00:31:55.845Z,1006.73
2017-08-12T00:32:55.867Z,1006.77
2017-08-12T00:33:55.893Z,1006.75
2017-08-12T00:34:55.920Z,1006.78
2017-08-12T00:35:55.941Z,1006.72
2017-08-12T00:36:55.961Z,1006.69
2017-08-12T00:37:55.986Z,1006.67
2017-08-12T00:38:56.016Z,1006.64
2017-08-12T00:39:56.037Z,1006.58
2017-08-12T00:41:56.083Z,1006.45
2017-08-12T00:42:56.109Z,1006.39
2017-08-12T00:43:56.129Z,1006.34
2017-08-12T00:44:56.156Z,1006.28
2017-08-12T00:45:56.181Z,1006.26
2017-08-12T00:46:56.255Z,1006.2
2017-08-12T00:47:56.232Z,1006.18
2017-08-12T00:48:56.257Z,1006.17
2017-08-12T00:49:56.276Z,1006.11
2017-08-12T00:50:56.306Z,1006.06
2017-08-12T00:51:56.325Z,1006.09
2017-08-12T00:52:56.349Z,1006.08
2017-08-12T00:53:56.370Z,1006.17
2017-08-12T00:54:56.399Z,1006.17
2017-08-12T00:56:56.445Z,1006.28
2017-08-12T00:57:56.469Z,1006.24
2017-08-12T00:58:56.494Z,1006.29
2017-08-12T00:59:56.516Z,1006.24
2017-08-12T01:00:56.541Z,1006.3
2017-08-12T01:01:56.564Z,1006.33
2017-08-12T01:02:56.587Z,1006.29
2017-08-12T01:03:56.611Z,1006.22
2017-08-12T01:04:56.634Z,1006.25
2017-08-12T01:05:56.659Z,1006.22
2017-08-12T01:06:56.685Z,1006.23
2017-08-12T01:07:56.708Z,1006.17
2017-08-12T01:08:56.731Z,1006.16
2017-08-12T01:09:56.780Z,1006.16
2017-08-12T01:10:56.782Z,1006.13
2017-08-12T01:11:56.858Z,1006.14
2017-08-12T01:12:56.827Z,1006.18
2017-08-12T01:13:56.849Z,1006.15
2017-08-12T01:14:56.874Z,1006.16
2017-08-12T01:15:56.897Z,1006.13
2017-08-12T01:16:56.922Z,1006.17
2017-08-12T01:17:56.947Z,1006.18
2017-08-12T01:18:56.972Z,1006.13
2017-08-12T01:19:56.988Z,1006.16
2017-08-12T01:20:57.013Z,1006.15
2017-08-12T01:21:57.039Z,1006.14
2017-08-12T01:22:57.065Z,1006.18
2017-08-12T01:23:57.088Z,1006.09
2017-08-12T01:24:57.111Z,1006.15
2017-08-12T01:25:57.137Z,1006.12
2017-08-12T01:26:57.160Z,1006.11
2017-08-12T01:28:57.206Z,1006.13
2017-08-12T01:29:57.233Z,1006.14
2017-08-12T01:30:57.253Z,1006.28
2017-08-12T01:31:57.276Z,1006.15
2017-08-12T01:32:57.304Z,1006.12
2017-08-12T01:33:57.326Z,1006.15
2017-08-12T01:34:57.349Z,1006.15
2017-08-12T01:35:57.370Z,1006.22
2017-08-12T01:36:57.399Z,1006.19
2017-08-12T01:37:57.420Z,1006.25
2017-08-12T01:38:57.444Z,1006.3
2017-08-12T01:39:57.466Z,1006.31
2017-08-12T01:40:57.486Z,1006.32
2017-08-12T01:41:57.515Z,1006.29
2017-08-12T01:42:57.538Z,1006.35
2017-08-12T01:44:57.609Z,1006.38
2017-08-12T01:45:57.609Z,1006.34
2017-08-12T01:46:57.638Z,1006.26
2017-08-12T01:47:57.658Z,1006.34
2017-08-12T01:48:57.684Z,1006.4
2017-08-12T01:49:57.704Z,1006.37
2017-08-12T01:50:57.727Z,1006.36
2017-08-12T01:51:57.751Z,1006.34
2017-08-12T01:52:57.775Z,1006.3
2017-08-12T01:53:57.800Z,1006.35
2017-08-12T01:54:57.822Z,1006.38
2017-08-12T01:55:57.845Z,1006.34
2017-08-12T01:56:57.868Z,1006.36
2017-08-12T01:57:57.893Z,1006.36
2017-08-12T01:58:57.917Z,1006.3
2017-08-12T02:00:57.966Z,1006.13
2017-08-12T02:01:57.984Z,1006.25
2017-08-12T02:02:58.013Z,1006.28
2017-08-12T02:03:58.031Z,1006.26
2017-08-12T02:04:58.059Z,1006.27
2017-08-12T02:05:58.084Z,1006.29
2017-08-12T02:06:58.106Z,1006.28
2017-08-12T02:07:58.132Z,1006.28
2017-08-12T02:08:58.155Z,1006.28
2017-08-12T02:09:58.177Z,1006.25
2017-08-12T02:10:58.201Z,1006.23
2017-08-12T02:11:58.220Z,1006.22
2017-08-12T02:12:58.248Z,1006.18
2017-08-12T02:13:58.269Z,1006.19
2017-08-12T02:14:58.290Z,1006.18
2017-08-12T02:16:58.342Z,1006.13
2017-08-12T02:17:58.366Z,1006.14
2017-08-12T02:18:58.390Z,1006.08
2017-08-12T02:19:58.413Z,1006.13
2017-08-12T02:20:58.433Z,1006.13
2017-08-12T02:21:58.462Z,1006.11
2017-08-12T02:22:58.483Z,1006.07
2017-08-12T02:23:58.507Z,1006.11
2017-08-12T02:24:58.531Z,1006.06
2017-08-12T02:25:58.553Z,1006.02
2017-08-12T02:26:58.576Z,1006.07
2017-08-12T02:27:58.599Z,1006.01
2017-08-12T02:28:58.623Z,1006.03
2017-08-12T02:29:58.650Z,1006.09
2017-08-12T02:31:58.698Z,1006
2017-08-12T02:32:58.719Z,1006.07
2017-08-12T02:33:58.744Z,1006.02
2017-08-12T02:34:58.768Z,1005.92
2017-08-12T02:35:58.788Z,1005.97
2017-08-12T02:36:58.814Z,1006.03
2017-08-12T02:37:58.837Z,1005.92
2017-08-12T02:38:58.862Z,1006
2017-08-12T02:39:58.887Z,1005.91
2017-08-12T02:40:58.905Z,1005.94
2017-08-12T02:41:58.930Z,1005.92
2017-08-12T02:42:58.956Z,1005.89
2017-08-12T02:43:58.978Z,1005.97
2017-08-12T02:44:59.000Z,1005.92
2017-08-12T02:45:59.026Z,1005.94
2017-08-12T02:46:59.050Z,1005.9
2017-08-12T02:47:59.072Z,1005.9
2017-08-12T02:48:59.097Z,1005.93
2017-08-12T02:49:59.118Z,1005.86
2017-08-12T02:50:59.142Z,1005.92
2017-08-12T02:51:59.166Z,1005.9
2017-08-12T02:52:59.190Z,1005.88
2017-08-12T02:53:59.214Z,1005.89
2017-08-12T02:54:59.241Z,1005.86
2017-08-12T02:55:59.310Z,1005.87
2017-08-12T02:56:59.282Z,1005.89
2017-08-12T02:57:59.312Z,1005.87
2017-08-12T02:58:59.332Z,1005.87
2017-08-12T02:59:59.354Z,1005.84
2017-08-12T03:00:59.376Z,1005.92
2017-08-12T03:01:59.402Z,1005.88
2017-08-12T03:03:59.449Z,1005.9
2017-08-12T03:04:59.469Z,1005.92
2017-08-12T03:05:59.495Z,1005.9
2017-08-12T03:06:59.514Z,1005.87
2017-08-12T03:07:59.541Z,1005.92
2017-08-12T03:08:59.564Z,1005.88
2017-08-12T03:09:59.591Z,1005.91
2017-08-12T03:10:59.609Z,1005.9
2017-08-12T03:11:59.633Z,1005.88
2017-08-12T03:12:59.658Z,1005.9
2017-08-12T03:13:59.682Z,1005.92
2017-08-12T03:14:59.702Z,1005.9
2017-08-12T03:15:59.731Z,1005.95
2017-08-12T03:16:59.753Z,1005.94
2017-08-12T03:17:59.777Z,1005.96
2017-08-12T03:19:59.823Z,1005.94
2017-08-12T03:20:59.846Z,1005.95
2017-08-12T03:21:59.873Z,1006.03
2017-08-12T03:22:59.896Z,1005.95
2017-08-12T03:23:59.916Z,1006.01
2017-08-12T03:24:59.943Z,1006.02
2017-08-12T03:25:59.962Z,1006.06
2017-08-12T03:26:59.986Z,1006.05
2017-08-12T03:28:00.009Z,1006.01
2017-08-12T03:29:00.033Z,1006.04
2017-08-12T03:30:00.057Z,1006.07
2017-08-12T03:31:00.078Z,1006.07
2017-08-12T03:32:00.103Z,1006.04
2017-08-12T03:33:00.128Z,1006.08
2017-08-12T03:34:00.150Z,1006.05
2017-08-12T03:36:00.199Z,1006.1
2017-08-12T03:37:00.224Z,1006.16
2017-08-12T03:38:00.244Z,1006.23
2017-08-12T03:39:00.318Z,1006.2
2017-08-12T03:40:00.291Z,1006.17
2017-08-12T03:41:00.317Z,1006.19
2017-08-12T03:42:00.335Z,1006.15
2017-08-12T03:43:00.362Z,1006.19
2017-08-12T03:44:00.382Z,1006.22
2017-08-12T03:45:00.406Z,1006.19
2017-08-12T03:46:00.430Z,1006.21
2017-08-12T03:47:00.456Z,1006.24
2017-08-12T03:48:00.478Z,1006.21
2017-08-12T03:49:00.501Z,1006.2
2017-08-12T03:50:00.525Z,1006.24
2017-08-12T03:52:00.571Z,1006.25
2017-08-12T03:53:00.598Z,1006.22
2017-08-12T03:54:00.620Z,1006.24
2017-08-12T03:55:00.640Z,1006.19
2017-08-12T03:56:00.664Z,1006.25
2017-08-12T03:57:00.688Z,1006.26
2017-08-12T03:58:00.710Z,1006.26
2017-08-12T03:59:00.732Z,1006.26
2017-08-12T04:00:00.759Z,1006.27
2017-08-12T04:01:00.781Z,1006.28
2017-08-12T04:02:00.805Z,1006.24
2017-08-12T04:03:00.828Z,1006.26
2017-08-12T04:04:00.851Z,1006.24
2017-08-12T04:05:00.875Z,1006.26
2017-08-12T04:07:00.920Z,1006.21
2017-08-12T04:08:00.940Z,1006.27
2017-08-12T04:09:00.968Z,1006.28
2017-08-12T04:10:00.990Z,1006.31
2017-08-12T04:11:01.014Z,1006.28
2017-08-12T04:12:01.036Z,1006.31
2017-08-12T04:13:01.064Z,1006.31
2017-08-12T04:14:01.084Z,1006.31
2017-08-12T04:15:01.105Z,1006.26
2017-08-12T04:16:01.128Z,1006.27
2017-08-12T04:17:01.149Z,1006.24
2017-08-12T04:18:01.181Z,1006.27
2017-08-12T04:19:01.197Z,1006.28
2017-08-12T04:20:01.222Z,1006.28
2017-08-12T04:21:01.247Z,1006.28
2017-08-12T04:22:01.272Z,1006.3
2017-08-12T04:23:01.295Z,1006.25
2017-08-12T04:24:01.316Z,1006.26
2017-08-12T04:25:01.338Z,1006.24
2017-08-12T04:26:01.357Z,1006.27
2017-08-12T04:27:01.385Z,1006.28
2017-08-12T04:28:01.407Z,1006.22
2017-08-12T04:29:01.432Z,1006.23
2017-08-12T04:30:01.454Z,1006.26
2017-08-12T04:31:01.480Z,1006.22
2017-08-12T04:32:01.501Z,1006.25
2017-08-12T04:33:01.526Z,1006.26
2017-08-12T04:34:01.543Z,1006.21
2017-08-12T04:35:01.575Z,1006.22
2017-08-12T04:36:01.595Z,1006.22
2017-08-12T04:37:01.619Z,1006.18
2017-08-12T04:39:01.664Z,1006.18
2017-08-12T04:40:01.690Z,1006.18
2017-08-12T04:41:01.709Z,1006.18
2017-08-12T04:42:01.733Z,1006.22
2017-08-12T04:43:01.758Z,1006.24
2017-08-12T04:44:01.784Z,1006.16
2017-08-12T04:45:01.804Z,1006.21
2017-08-12T04:46:01.821Z,1006.16
2017-08-12T04:47:01.862Z,1006.16
2017-08-12T04:48:01.871Z,1006.17
2017-08-12T04:49:01.896Z,1006.21
2017-08-12T04:50:01.914Z,1006.22
2017-08-12T04:51:01.942Z,1006.17
2017-08-12T04:52:01.964Z,1006.25
2017-08-12T04:53:01.985Z,1006.24
2017-08-12T04:55:02.036Z,1006.26
2017-08-12T04:56:02.056Z,1006.3
2017-08-12T04:57:02.080Z,1006.27
2017-08-12T04:58:02.101Z,1006.25
2017-08-12T04:59:02.127Z,1006.26
2017-08-12T05:00:02.147Z,1006.27
2017-08-12T05:01:02.171Z,1006.22
2017-08-12T05:02:02.194Z,1006.23
2017-08-12T05:03:02.218Z,1006.18
2017-08-12T05:04:02.241Z,1006.18
2017-08-12T05:05:02.263Z,1006.18
2017-08-12T05:06:02.288Z,1006.2
2017-08-12T05:07:02.310Z,1006.14
2017-08-12T05:08:02.334Z,1006.17
2017-08-12T05:09:02.359Z,1006.18
2017-08-12T05:11:02.404Z,1006.19
2017-08-12T05:12:02.427Z,1006.21
2017-08-12T05:13:02.450Z,1006.25
2017-08-12T05:14:02.472Z,1006.25
2017-08-12T05:15:02.496Z,1006.19
2017-08-12T05:16:02.521Z,1006.18
2017-08-12T05:17:02.542Z,1006.26
2017-08-12T05:18:02.561Z,1006.22
2017-08-12T05:19:02.589Z,1006.23
2017-08-12T05:20:02.614Z,1006.28
2017-08-12T05:21:02.630Z,1006.34
2017-08-12T05:22:02.658Z,1006.3
2017-08-12T05:23:02.682Z,1006.33
2017-08-12T05:24:02.704Z,1006.25
2017-08-12T05:25:02.729Z,1006.32
2017-08-12T05:27:02.773Z,1006.33
2017-08-12T05:28:02.797Z,1006.32
2017-08-12T05:29:02.819Z,1006.3
2017-08-12T05:30:02.848Z,1006.28
2017-08-12T05:31:02.865Z,1006.35
2017-08-12T05:32:02.889Z,1006.38
2017-08-12T05:33:02.910Z,1006.33
2017-08-12T05:34:02.937Z,1006.37
2017-08-12T05:35:02.959Z,1006.39
2017-08-12T05:36:02.982Z,1006.39
2017-08-12T05:37:03.013Z,1006.41
2017-08-12T05:38:03.025Z,1006.43
2017-08-12T05:39:03.050Z,1006.45
2017-08-12T05:40:03.075Z,1006.46
2017-08-12T05:42:03.123Z,1006.53
2017-08-12T05:43:03.148Z,1006.52
2017-08-12T05:44:03.166Z,1006.52
2017-08-12T05:45:03.191Z,1006.53
2017-08-12T05:46:03.214Z,1006.58
2017-08-12T05:47:03.235Z,1006.64
2017-08-12T05:48:03.261Z,1006.67
2017-08-12T05:49:03.283Z,1006.64
2017-08-12T05:50:03.306Z,1006.66
2017-08-12T05:51:03.331Z,1006.68
2017-08-12T05:52:03.351Z,1006.61
2017-08-12T05:53:03.377Z,1006.65
2017-08-12T05:54:03.399Z,1006.67
2017-08-12T05:55:03.426Z,1006.68
2017-08-12T05:56:03.446Z,1006.71
2017-08-12T05:57:03.465Z,1006.73
2017-08-12T05:58:03.491Z,1006.75
2017-08-12T05:59:03.513Z,1006.78
2017-08-12T06:00:03.542Z,1006.77
2017-08-12T06:01:03.563Z,1006.8
2017-08-12T06:02:03.584Z,1006.83
2017-08-12T06:03:03.606Z,1006.74
2017-08-12T06:04:03.631Z,1006.82
2017-08-12T06:05:03.658Z,1006.8
2017-08-12T06:06:03.680Z,1006.8
2017-08-12T06:07:03.703Z,1006.82
2017-08-12T06:08:03.723Z,1006.84
2017-08-12T06:09:03.747Z,1006.87
2017-08-12T06:10:03.772Z,1006.87
2017-08-12T06:11:03.794Z,1006.87
2017-08-12T06:12:03.817Z,1006.92
2017-08-12T06:14:03.867Z,1006.95
2017-08-12T06:15:03.885Z,1006.99
2017-08-12T06:16:03.932Z,1006.92
2017-08-12T06:17:03.934Z,1006.99
2017-08-12T06:18:03.955Z,1007
2017-08-12T06:19:03.984Z,1007.01
2017-08-12T06:20:04.002Z,1007.05
2017-08-12T06:21:04.026Z,1007.07
2017-08-12T06:22:04.050Z,1007.09
2017-08-12T06:23:04.069Z,1007.11
2017-08-12T06:24:04.098Z,1007.12
2017-08-12T06:25:04.122Z,1007.13
2017-08-12T06:26:04.145Z,1007.13
2017-08-12T06:27:04.160Z,1007.12
2017-08-12T06:28:04.187Z,1007.09
2017-08-12T06:30:04.230Z,1007.12
2017-08-12T06:31:04.258Z,1007.13
2017-08-12T06:32:04.282Z,1007.08
2017-08-12T06:33:04.305Z,1007.15
2017-08-12T06:34:04.328Z,1007.15
2017-08-12T06:35:04.348Z,1007.13
2017-08-12T06:36:04.375Z,1007.14
2017-08-12T06:37:04.400Z,1007.17
2017-08-12T06:38:04.417Z,1007.07
2017-08-12T06:39:04.448Z,1007.12
2017-08-12T06:40:04.468Z,1007.1
2017-08-12T06:41:04.491Z,1007.14
2017-08-12T06:42:04.517Z,1007.13
2017-08-12T06:43:04.536Z,1007.12
2017-08-12T06:44:04.563Z,1007.09
2017-08-12T06:46:04.609Z,1007.09
2017-08-12T06:47:04.634Z,1007.12
2017-08-12T06:48:04.657Z,1007.12
2017-08-12T06:49:04.681Z,1007.16
2017-08-12T06:50:04.701Z,1007.18
2017-08-12T06:51:04.728Z,1007.15
2017-08-12T06:52:04.752Z,1007.22
2017-08-12T06:53:04.772Z,1007.26
2017-08-12T06:54:04.796Z,1007.19
2017-08-12T06:55:04.820Z,1007.29
2017-08-12T06:56:04.845Z,1007.25
2017-08-12T06:57:04.864Z,1007.29
2017-08-12T06:58:04.892Z,1007.29
2017-08-12T06:59:04.914Z,1007.28
2017-08-12T07:00:04.939Z,1007.28
2017-08-12T07:02:04.985Z,1007.34
2017-08-12T07:03:05.012Z,1007.37
2017-08-12T07:04:05.034Z,1007.39
2017-08-12T07:05:05.057Z,1007.37
2017-08-12T07:06:05.081Z,1007.46
2017-08-12T07:07:05.104Z,1007.41
2017-08-12T07:08:05.125Z,1007.42
2017-08-12T07:09:05.148Z,1007.41
2017-08-12T07:10:05.175Z,1007.44
2017-08-12T07:11:05.196Z,1007.43
2017-08-12T07:12:05.220Z,1007.44
2017-08-12T07:13:05.245Z,1007.43
2017-08-12T07:14:05.269Z,1007.47
2017-08-12T07:15:05.291Z,1007.57
2017-08-12T07:17:05.339Z,1007.58
2017-08-12T07:18:05.362Z,1007.61
2017-08-12T07:19:05.384Z,1007.66
2017-08-12T07:20:05.411Z,1007.63
2017-08-12T07:21:05.432Z,1007.64
2017-08-12T07:22:05.455Z,1007.63
2017-08-12T07:23:05.476Z,1007.63
2017-08-12T07:24:05.505Z,1007.65
2017-08-12T07:25:05.524Z,1007.63
2017-08-12T07:26:05.546Z,1007.67
2017-08-12T07:27:05.572Z,1007.67
2017-08-12T07:28:05.597Z,1007.71
2017-08-12T07:29:05.621Z,1007.74
2017-08-12T07:30:05.637Z,1007.72
2017-08-12T07:31:05.666Z,1007.72
2017-08-12T07:32:05.688Z,1007.83
2017-08-12T07:33:05.711Z,1007.82
2017-08-12T07:34:05.736Z,1007.81
2017-08-12T07:35:05.760Z,1007.79
2017-08-12T07:36:05.782Z,1007.84
2017-08-12T07:37:05.806Z,1007.88
2017-08-12T07:38:05.830Z,1007.9
2017-08-12T07:39:05.849Z,1007.86
2017-08-12T07:40:05.872Z,1007.84
2017-08-12T07:41:05.898Z,1007.82
2017-08-12T07:42:05.923Z,1007.85
2017-08-12T07:43:05.945Z,1007.88
2017-08-12T07:44:05.970Z,1007.88
2017-08-12T07:45:05.993Z,1007.9
2017-08-12T07:46:06.014Z,1007.91
2017-08-12T07:47:06.039Z,1007.89
2017-08-12T07:49:06.086Z,1007.93
2017-08-12T07:50:06.103Z,1007.96
2017-08-12T07:51:06.131Z,1007.95
2017-08-12T07:52:06.155Z,1007.96
2017-08-12T07:53:06.186Z,1007.99
2017-08-12T07:54:06.200Z,1008.09
2017-08-12T07:55:06.223Z,1007.94
2017-08-12T07:56:06.250Z,1008
2017-08-12T07:57:06.272Z,1008.01
2017-08-12T07:58:06.294Z,1008.05
2017-08-12T07:59:06.317Z,1008.07
2017-08-12T08:00:06.343Z,1008.02
2017-08-12T08:01:06.363Z,1008.08
2017-08-12T08:02:06.382Z,1008.15
2017-08-12T08:03:06.410Z,1008.16
2017-08-12T08:05:06.455Z,1008.14
2017-08-12T08:06:06.480Z,1008.22
2017-08-12T08:07:06.503Z,1008.19
2017-08-12T08:08:06.527Z,1008.26
2017-08-12T08:09:06.550Z,1008.29
2017-08-12T08:10:06.574Z,1008.34
2017-08-12T08:11:06.597Z,1008.35
2017-08-12T08:12:06.619Z,1008.41
2017-08-12T08:13:06.642Z,1008.37
2017-08-12T08:14:06.666Z,1008.42
2017-08-12T08:15:06.689Z,1008.38
2017-08-12T08:16:06.713Z,1008.34
2017-08-12T08:17:06.738Z,1008.46
2017-08-12T08:18:06.759Z,1008.42
2017-08-12T08:19:06.784Z,1008.49
2017-08-12T08:21:06.829Z,1008.47
2017-08-12T08:22:06.851Z,1008.55
2017-08-12T08:23:06.927Z,1008.5
2017-08-12T08:24:06.898Z,1008.56
2017-08-12T08:25:06.923Z,1008.53
2017-08-12T08:26:06.943Z,1008.59
2017-08-12T08:27:06.969Z,1008.61
2017-08-12T08:28:06.989Z,1008.58
2017-08-12T08:29:07.016Z,1008.6
2017-08-12T08:30:07.039Z,1008.55
2017-08-12T08:31:07.064Z,1008.69
2017-08-12T08:32:07.086Z,1008.66
2017-08-12T08:33:07.109Z,1008.64
2017-08-12T08:34:07.130Z,1008.62
2017-08-12T08:35:07.156Z,1008.7
2017-08-12T08:37:07.201Z,1008.64
2017-08-12T08:38:07.228Z,1008.68
2017-08-12T08:39:07.251Z,1008.71
2017-08-12T08:40:07.269Z,1008.72
2017-08-12T08:41:07.298Z,1008.74
2017-08-12T08:42:07.318Z,1008.72
2017-08-12T08:43:07.343Z,1008.75
2017-08-12T08:44:07.365Z,1008.73
2017-08-12T08:45:07.385Z,1008.82
2017-08-12T08:46:07.411Z,1008.78
2017-08-12T08:47:07.432Z,1008.79
2017-08-12T08:48:07.456Z,1008.81
2017-08-12T08:49:07.482Z,1008.83
2017-08-12T08:50:07.505Z,1008.83
2017-08-12T08:52:07.555Z,1008.8
2017-08-12T08:53:07.572Z,1008.86
2017-08-12T08:54:07.596Z,1008.85
2017-08-12T08:55:07.625Z,1008.89
2017-08-12T08:56:07.648Z,1008.88
2017-08-12T08:57:07.668Z,1008.89
2017-08-12T08:58:07.692Z,1008.9
2017-08-12T08:59:07.716Z,1008.89
2017-08-12T09:00:07.736Z,1008.98
2017-08-12T09:01:07.764Z,1008.92
2017-08-12T09:02:07.787Z,1008.94
2017-08-12T09:03:07.805Z,1008.96
2017-08-12T09:04:07.833Z,1008.97
2017-08-12T09:05:07.858Z,1008.99
2017-08-12T09:06:07.877Z,1009.05
2017-08-12T09:07:07.907Z,1009.04
2017-08-12T09:08:07.924Z,1009.04
2017-08-12T09:09:07.950Z,1009.07
2017-08-12T09:10:07.969Z,1009.11
2017-08-12T09:11:07.997Z,1009.04
2017-08-12T09:12:08.019Z,1009.12
2017-08-12T09:13:08.047Z,1009.09
2017-08-12T09:14:08.069Z,1009.1
2017-08-12T09:15:08.087Z,1009.07
2017-08-12T09:16:08.113Z,1009.1
2017-08-12T09:17:08.134Z,1009.1
2017-08-12T09:18:08.162Z,1009.1
2017-08-12T09:19:08.179Z,1009.14
2017-08-12T09:20:08.207Z,1009.07
2017-08-12T09:21:08.231Z,1009.14
2017-08-12T09:22:08.254Z,1009.18
2017-08-12T09:24:08.297Z,1009.17
2017-08-12T09:25:08.329Z,1009.15
2017-08-12T09:26:08.346Z,1009.21
2017-08-12T09:27:08.373Z,1009.15
2017-08-12T09:28:08.396Z,1009.18
2017-08-12T09:29:08.418Z,1009.23
2017-08-12T09:30:08.442Z,1009.24
2017-08-12T09:31:08.465Z,1009.22
2017-08-12T09:32:08.489Z,1009.32
2017-08-12T09:33:08.511Z,1009.28
2017-08-12T09:34:08.535Z,1009.26
2017-08-12T09:35:08.562Z,1009.33
2017-08-12T09:36:08.580Z,1009.29
2017-08-12T09:37:08.608Z,1009.35
2017-08-12T09:38:08.627Z,1009.33
2017-08-12T09:40:08.679Z,1009.34
2017-08-12T09:41:08.699Z,1009.33
2017-08-12T09:42:08.725Z,1009.27
2017-08-12T09:43:08.750Z,1009.26
2017-08-12T09:44:08.774Z,1009.32
2017-08-12T09:45:08.794Z,1009.29
2017-08-12T09:46:08.821Z,1009.31
2017-08-12T09:47:08.844Z,1009.31
2017-08-12T09:48:08.864Z,1009.29
2017-08-12T09:49:08.891Z,1009.33
2017-08-12T09:50:08.913Z,1009.31
2017-08-12T09:51:08.940Z,1009.34
2017-08-12T09:52:08.961Z,1009.31
2017-08-12T09:53:08.986Z,1009.38
2017-08-12T09:54:09.010Z,1009.29
2017-08-12T09:56:09.109Z,1009.34
2017-08-12T09:57:09.079Z,1009.3
2017-08-12T09:58:09.105Z,1009.32
2017-08-12T09:59:09.128Z,1009.33
2017-08-12T10:00:09.155Z,1009.37
2017-08-12T10:01:09.228Z,1009.34
2017-08-12T10:02:09.204Z,1009.4
2017-08-12T10:03:09.226Z,1009.39
2017-08-12T10:04:09.251Z,1009.42
2017-08-12T10:05:09.325Z,1009.36
2017-08-12T10:06:09.299Z,1009.38
2017-08-12T10:07:09.319Z,1009.37
2017-08-12T10:08:09.346Z,1009.45
2017-08-12T10:09:09.369Z,1009.48
2017-08-12T10:10:09.388Z,1009.5
2017-08-12T10:12:09.441Z,1009.53
2017-08-12T10:13:09.463Z,1009.49
2017-08-12T10:14:09.489Z,1009.48
2017-08-12T10:15:09.508Z,1009.5
2017-08-12T10:16:09.538Z,1009.45
2017-08-12T10:17:09.559Z,1009.45
2017-08-12T10:18:09.586Z,1009.42
2017-08-12T10:19:09.608Z,1009.42
2017-08-12T10:20:09.632Z,1009.46
2017-08-12T10:21:09.653Z,1009.47
2017-08-12T10:22:09.683Z,1009.44
2017-08-12T10:23:09.703Z,1009.51
2017-08-12T10:24:09.722Z,1009.55
2017-08-12T10:25:09.825Z,1009.53
2017-08-12T10:27:09.795Z,1009.53
2017-08-12T10:28:09.827Z,1009.55
2017-08-12T10:29:09.850Z,1009.54
2017-08-12T10:30:09.873Z,1009.59
2017-08-12T10:31:09.900Z,1009.58
2017-08-12T10:32:09.917Z,1009.6
2017-08-12T10:33:09.946Z,1009.54
2017-08-12T10:34:09.964Z,1009.6
2017-08-12T10:35:09.989Z,1009.61
2017-08-12T10:36:10.013Z,1009.59
2017-08-12T10:37:10.040Z,1009.56
2017-08-12T10:38:10.060Z,1009.6
2017-08-12T10:39:10.083Z,1009.62
2017-08-12T10:40:10.109Z,1009.63
2017-08-12T10:41:10.138Z,1009.65
2017-08-12T10:42:10.164Z,1009.53
2017-08-12T10:43:10.186Z,1009.59
2017-08-12T10:44:10.210Z,1009.61
2017-08-12T10:45:10.230Z,1009.59
2017-08-12T10:46:10.261Z,1009.59
2017-08-12T10:47:10.280Z,1009.65
2017-08-12T10:48:10.305Z,1009.65
2017-08-12T10:49:10.331Z,1009.7
2017-08-12T10:50:10.355Z,1009.68
2017-08-12T10:51:10.380Z,1009.66
2017-08-12T10:52:10.403Z,1009.68
2017-08-12T10:53:10.430Z,1009.65
2017-08-12T10:54:10.454Z,1009.64
2017-08-12T10:55:10.480Z,1009.68
2017-08-12T10:56:10.524Z,1009.72
2017-08-12T10:57:10.525Z,1009.7
2017-08-12T10:59:10.577Z,1009.63
2017-08-12T11:00:10.602Z,1009.66
2017-08-12T11:01:10.628Z,1009.61
2017-08-12T11:02:10.653Z,1009.66
2017-08-12T11:03:10.678Z,1009.71
2017-08-12T11:04:10.698Z,1009.61
2017-08-12T11:05:10.726Z,1009.67
2017-08-12T11:06:10.751Z,1009.64
2017-08-12T11:07:10.776Z,1009.64
2017-08-12T11:08:10.798Z,1009.63
2017-08-12T11:09:10.848Z,1009.64
2017-08-12T11:10:10.851Z,1009.69
2017-08-12T11:11:10.874Z,1009.72
2017-08-12T11:12:10.898Z,1009.7
2017-08-12T11:13:10.925Z,1009.75
2017-08-12T11:15:10.975Z,1009.72
2017-08-12T11:16:10.996Z,1009.72
2017-08-12T11:17:11.027Z,1009.7
2017-08-12T11:18:11.052Z,1009.75
2017-08-12T11:19:11.076Z,1009.79
2017-08-12T11:20:11.099Z,1009.73
2017-08-12T11:21:11.127Z,1009.73
2017-08-12T11:22:11.154Z,1009.71
2017-08-12T11:23:11.180Z,1009.68
2017-08-12T11:24:11.204Z,1009.75
2017-08-12T11:25:11.225Z,1009.76
2017-08-12T11:26:11.253Z,1009.81
2017-08-12T11:27:11.279Z,1009.76
2017-08-12T11:28:11.302Z,1009.8
2017-08-12T11:29:11.329Z,1009.81
2017-08-12T11:31:11.380Z,1009.84
2017-08-12T11:32:11.402Z,1009.8
2017-08-12T11:33:11.431Z,1009.8
2017-08-12T11:34:11.451Z,1009.86
2017-08-12T11:35:11.481Z,1009.83
2017-08-12T11:36:11.506Z,1009.8
2017-08-12T11:37:11.532Z,1009.78
2017-08-12T11:38:11.558Z,1009.76
2017-08-12T11:39:11.584Z,1009.75
2017-08-12T11:40:11.608Z,1009.79
2017-08-12T11:41:11.634Z,1009.83
2017-08-12T11:42:11.658Z,1009.8
2017-08-12T11:43:11.685Z,1009.77
2017-08-12T11:44:11.713Z,1009.84
2017-08-12T11:45:11.736Z,1009.84
2017-08-12T11:47:11.788Z,1009.83
2017-08-12T11:48:11.812Z,1009.86
2017-08-12T11:49:11.832Z,1009.8
2017-08-12T11:50:11.864Z,1009.81
2017-08-12T11:51:11.888Z,1009.82
2017-08-12T11:52:11.913Z,1009.83
2017-08-12T11:53:11.939Z,1009.81
2017-08-12T11:54:11.961Z,1009.86
2017-08-12T11:55:11.990Z,1009.84
2017-08-12T11:56:12.016Z,1009.89
2017-08-12T11:57:12.039Z,1009.87
2017-08-12T11:58:12.067Z,1009.86
2017-08-12T11:59:12.090Z,1009.84
2017-08-12T12:00:12.116Z,1009.85
2017-08-12T12:02:12.170Z,1009.88
2017-08-12T12:03:12.188Z,1009.84
2017-08-12T12:04:12.218Z,1009.87
2017-08-12T12:05:12.243Z,1009.88
2017-08-12T12:06:12.271Z,1009.9
2017-08-12T12:07:12.291Z,1009.88
2017-08-12T12:08:12.317Z,1009.97
2017-08-12T12:09:12.345Z,1009.94
2017-08-12T12:10:12.369Z,1009.88
2017-08-12T12:11:12.393Z,1009.89
2017-08-12T12:12:12.419Z,1009.92
2017-08-12T12:13:12.445Z,1009.93
2017-08-12T12:14:12.466Z,1009.91
2017-08-12T12:15:12.490Z,1009.89
2017-08-12T12:16:12.518Z,1009.87
2017-08-12T12:17:12.546Z,1009.92
2017-08-12T12:18:12.570Z,1009.88
2017-08-12T12:19:12.594Z,1009.95
2017-08-12T12:20:12.622Z,1009.95
2017-08-12T12:21:12.649Z,1009.95
2017-08-12T12:22:12.674Z,1009.91
2017-08-12T12:23:12.697Z,1009.92
2017-08-12T12:24:12.727Z,1009.91
2017-08-12T12:25:12.746Z,1009.91
2017-08-12T12:26:12.776Z,1009.87
2017-08-12T12:27:12.801Z,1009.85
2017-08-12T12:28:12.824Z,1009.89
2017-08-12T12:29:12.851Z,1009.9
2017-08-12T12:30:12.877Z,1009.86
2017-08-12T12:31:12.920Z,1009.87
2017-08-12T12:32:12.927Z,1009.86
2017-08-12T12:34:12.976Z,1009.82
2017-08-12T12:35:13.007Z,1009.88
2017-08-12T12:36:13.027Z,1009.86
2017-08-12T12:37:13.075Z,1009.88
2017-08-12T12:38:13.082Z,1009.98
2017-08-12T12:39:13.109Z,1009.94
2017-08-12T12:40:13.138Z,1009.92
2017-08-12T12:41:13.159Z,1009.96
2017-08-12T12:42:13.185Z,1009.94
2017-08-12T12:43:13.211Z,1009.91
2017-08-12T12:44:13.233Z,1009.91
2017-08-12T12:45:13.262Z,1009.93
2017-08-12T12:46:13.283Z,1009.91
2017-08-12T12:47:13.314Z,1009.95
2017-08-12T12:48:13.340Z,1009.87